LFRI

La Roche-sur-Yon Airport

La Roche-sur-Yon/Les Ajoncs, France
METAR LFRI 170700Z AUTO 34006KT CAVOK 14/13 Q1022 NOSIG
Observed Flight Rules
Aug-17 @ 07:00 UTC (13 minutes ago) Visual Flight Rules
Wind Visibility Clouds
340° at 6 knots 10,000+ meters
  • Clear skies
Temperatures Readings
Current 14°C / 57°F
Dewpoint 13°C / 55°F
Humidity 94%
Altimeter 30.18" Hg
Pressure 1022 hPa
Elevation 91
METAR LFRI 170700Z AUTO 34006KT CAVOK 14/13 Q1022 NOSIG
Observed Flight Rules
Aug-17 @ 07:00 UTC
(13 minutes ago)
VFR
Wind Visibility
340° at 6 knots 10,000+ meters
Clouds
  • Clear skies
Temperature Dewpoint
14°C / 57°F 13°C / 55°F
Humidity Altimeter Pressure
94% 30.18" Hg 1022 hPa